Time;durP1;ratioP1;P1;durP2;ratioP2;P2;SDS_P1;SDS_P2;PMS_P1;PMS_P2;Temp;Humidity;BMP_temperature;BMP_pressure;BME280_temperature;BME280_humidity;BME280_pressure;Samples;Min_cycle;Max_cycle;Signal;HPM_P1;HPM_P2
2021/06/02 00:02:21;;;;;;;57.77;2.60;;;11.60;1.00;;;;;;4997020;28;20874;-68
2021/06/02 00:04:50;;;;;;;58.07;2.40;;;11.60;1.00;;;;;;4996454;28;20493;-68
2021/06/02 00:07:21;;;;;;;57.93;2.50;;;11.50;1.00;;;;;;4995946;28;20515;-68
2021/06/02 00:09:50;;;;;;;57.87;2.60;;;11.50;1.00;;;;;;4996563;28;20460;-68
2021/06/02 00:12:16;;;;;;;58.07;2.80;;;11.50;1.00;;;;;;4996237;28;21018;-67
2021/06/02 00:14:43;;;;;;;57.67;2.67;;;11.60;1.00;;;;;;4996390;28;20447;-68
2021/06/02 00:17:10;;;;;;;58.17;2.60;;;11.60;1.00;;;;;;4995749;28;20553;-68
2021/06/02 00:19:37;;;;;;;57.97;2.70;;;11.50;1.00;;;;;;4995911;28;20460;-68
2021/06/02 00:22:05;;;;;;;57.67;2.80;;;11.40;1.00;;;;;;4996381;28;20450;-68
2021/06/02 00:24:32;;;;;;;57.77;2.47;;;11.40;1.00;;;;;;4996063;28;20573;-68
2021/06/02 00:27:02;;;;;;;58.07;2.43;;;11.40;1.00;;;;;;4995551;28;20958;-68
2021/06/02 00:29:31;;;;;;;57.90;2.47;;;11.30;1.00;;;;;;4996115;28;20505;-68
2021/06/02 00:31:58;;;;;;;58.03;2.60;;;11.30;1.00;;;;;;4995999;28;20537;-68
2021/06/02 00:34:25;;;;;;;58.07;2.63;;;11.30;1.00;;;;;;4995696;28;20546;-67
2021/06/02 00:36:52;;;;;;;57.97;2.70;;;11.30;1.00;;;;;;4995929;28;20537;-68
2021/06/02 00:39:18;;;;;;;57.67;2.50;;;11.20;1.00;;;;;;4995825;28;20446;-68
2021/06/02 00:41:48;;;;;;;57.53;2.70;;;11.20;1.00;;;;;;4995940;28;20934;-68
2021/06/02 00:44:18;;;;;;;57.67;2.47;;;11.20;1.00;;;;;;4995720;28;20482;-68
2021/06/02 00:46:47;;;;;;;57.87;2.50;;;11.20;1.00;;;;;;4995536;28;20488;-68
2021/06/02 00:49:15;;;;;;;57.77;2.70;;;11.10;1.00;;;;;;4995969;28;20537;-68
2021/06/02 00:51:46;;;;;;;57.87;2.50;;;11.10;1.00;;;;;;4995763;28;20454;-67
2021/06/02 00:54:13;;;;;;;58.07;2.50;;;11.10;1.00;;;;;;4995497;28;20450;-68
2021/06/02 00:56:43;;;;;;;57.87;2.57;;;11.10;1.00;;;;;;4995240;28;20450;-68
2021/06/02 00:59:10;;;;;;;57.97;2.70;;;11.00;1.00;;;;;;4995283;28;20463;-67
2021/06/02 01:01:39;;;;;;;58.17;2.60;;;10.90;1.00;;;;;;4994416;28;20773;-67
2021/06/02 01:04:05;;;;;;;58.00;2.67;;;10.80;1.00;;;;;;4995027;28;20573;-68
2021/06/02 01:06:34;;;;;;;58.13;2.77;;;10.70;1.00;;;;;;4994841;28;20545;-68
2021/06/02 01:09:03;;;;;;;58.20;2.63;;;10.60;1.00;;;;;;4995001;28;20853;-68
2021/06/02 01:11:30;;;;;;;58.17;2.70;;;10.50;1.00;;;;;;4994962;28;20754;-67
2021/06/02 01:13:58;;;;;;;58.13;2.70;;;10.50;1.00;;;;;;4994814;28;20521;-68
2021/06/02 01:16:27;;;;;;;57.97;2.70;;;10.50;1.00;;;;;;4994600;28;20496;-68
2021/06/02 01:18:56;;;;;;;58.20;2.80;;;10.40;1.00;;;;;;4994711;28;20986;-67
2021/06/02 01:21:25;;;;;;;57.73;2.60;;;10.40;1.00;;;;;;4994854;28;20480;-68
2021/06/02 01:23:55;;;;;;;58.07;2.67;;;10.40;1.00;;;;;;4994707;28;20483;-67
2021/06/02 01:26:24;;;;;;;58.07;2.60;;;10.40;1.00;;;;;;4994622;28;20455;-67
2021/06/02 01:28:50;;;;;;;57.90;2.60;;;10.40;1.00;;;;;;4994593;28;20473;-67
2021/06/02 01:31:35;;;;;;;57.87;2.60;;;10.40;1.00;;;;;;4994922;28;20452;-68
2021/06/02 01:34:09;;;;;;;57.93;2.57;;;10.50;1.00;;;;;;4994772;28;20434;-67
2021/06/02 01:37:02;;;;;;;57.87;2.70;;;10.50;1.00;;;;;;4994469;28;20482;-67
2021/06/02 01:39:59;;;;;;;57.87;2.40;;;10.50;1.00;;;;;;4994803;28;20458;-68
2021/06/02 01:42:49;;;;;;;57.83;2.50;;;10.40;1.00;;;;;;4978568;28;20472;-67
2021/06/02 01:45:46;;;;;;;57.83;2.60;;;10.30;1.00;;;;;;4994327;28;20488;-67
2021/06/02 01:48:30;;;;;;;57.77;2.40;;;10.30;1.00;;;;;;4994176;28;20982;-67
2021/06/02 01:52:03;;;;;;;57.90;2.57;;;10.20;1.00;;;;;;4994604;28;20450;-68
2021/06/02 01:55:12;;;;;;;58.10;2.53;;;10.20;1.00;;;;;;4994545;28;20545;-68
2021/06/02 01:58:12;;;;;;;57.80;2.30;;;10.20;1.00;;;;;;4969742;28;20581;-68
2021/06/02 02:00:45;;;;;;;57.87;2.50;;;10.10;1.00;;;;;;4994316;28;20462;-68
2021/06/02 02:03:54;;;;;;;57.73;2.60;;;10.10;1.00;;;;;;4994228;28;20451;-67
2021/06/02 02:06:37;;;;;;;57.93;2.70;;;10.10;1.00;;;;;;4994128;28;20783;-68
2021/06/02 02:09:11;;;;;;;58.20;2.53;;;10.00;1.00;;;;;;4994256;28;20475;-68
2021/06/02 02:11:39;;;;;;;58.23;2.60;;;9.90;1.00;;;;;;4993788;28;20591;-67
2021/06/02 02:14:36;;;;;;;58.10;2.50;;;9.80;1.00;;;;;;4993469;28;20538;-67
2021/06/02 02:17:33;;;;;;;58.20;2.80;;;9.80;1.00;;;;;;4985069;28;20543;-68
2021/06/02 02:20:03;;;;;;;58.10;2.60;;;9.70;1.00;;;;;;4993871;28;20448;-68
2021/06/02 02:22:58;;;;;;;57.97;2.60;;;9.60;1.00;;;;;;4994023;28;20446;-68
2021/06/02 02:25:27;;;;;;;57.97;2.50;;;9.70;1.00;;;;;;4994007;28;20881;-68
2021/06/02 02:28:08;;;;;;;57.77;2.60;;;9.60;1.00;;;;;;4993664;28;20470;-68
2021/06/02 02:30:48;;;;;;;58.20;2.57;;;9.60;1.00;;;;;;4993650;28;20460;-68
2021/06/02 02:33:25;;;;;;;57.87;2.90;;;9.60;1.00;;;;;;4993798;28;20452;-68
2021/06/02 02:36:06;;;;;;;57.87;2.60;;;9.50;1.00;;;;;;4993502;28;20544;-67
2021/06/02 02:38:44;;;;;;;57.77;2.50;;;9.50;1.00;;;;;;4993349;28;20485;-67
2021/06/02 02:41:21;;;;;;;57.90;2.57;;;9.50;1.00;;;;;;4993395;28;20548;-68
2021/06/02 02:43:59;;;;;;;58.17;2.60;;;9.50;1.00;;;;;;4993367;28;20488;-67
2021/06/02 02:46:33;;;;;;;57.93;2.60;;;9.40;1.00;;;;;;4993168;28;21079;-67
2021/06/02 02:49:13;;;;;;;58.07;2.60;;;9.40;1.00;;;;;;4993358;28;20477;-67
2021/06/02 02:51:52;;;;;;;57.83;2.90;;;9.30;1.00;;;;;;4993226;28;20543;-68
2021/06/02 02:54:21;;;;;;;57.97;2.63;;;9.20;1.00;;;;;;4993404;28;20453;-68
2021/06/02 02:56:55;;;;;;;58.10;2.53;;;9.20;1.00;;;;;;4992911;28;20535;-67
2021/06/02 02:59:26;;;;;;;57.87;2.70;;;9.10;1.00;;;;;;4993154;28;20499;-67
2021/06/02 03:02:02;;;;;;;58.17;2.60;;;9.00;1.00;;;;;;4993329;28;20531;-67
2021/06/02 03:04:36;;;;;;;57.95;2.67;;;9.00;1.00;;;;;;4992899;28;20253;-67
2021/06/02 03:07:05;;;;;;;58.05;2.60;;;8.90;1.00;;;;;;4992941;28;20332;-67
2021/06/02 03:09:38;;;;;;;57.67;2.50;;;8.90;1.00;;;;;;4992954;28;20301;-67
2021/06/02 03:12:25;;;;;;;57.77;2.33;;;9.00;1.00;;;;;;4992883;28;20461;-67
2021/06/02 03:14:59;;;;;;;58.07;2.67;;;9.00;1.00;;;;;;4992785;28;20466;-68
2021/06/02 03:17:33;;;;;;;57.97;2.70;;;9.10;1.00;;;;;;4992745;28;20556;-67
2021/06/02 03:20:10;;;;;;;57.90;2.77;;;9.10;1.00;;;;;;4992923;28;20542;-67
2021/06/02 03:23:09;;;;;;;57.87;2.70;;;9.00;1.00;;;;;;4992804;28;20538;-67
2021/06/02 03:25:40;;;;;;;57.97;2.70;;;9.00;1.00;;;;;;4992862;28;20570;-68
2021/06/02 03:28:14;;;;;;;57.87;2.60;;;9.10;1.00;;;;;;4992653;28;20642;-68
2021/06/02 03:30:46;;;;;;;57.67;2.70;;;9.00;1.00;;;;;;4992800;28;20463;-68
2021/06/02 03:33:30;;;;;;;57.87;2.90;;;8.90;1.00;;;;;;4992720;28;20542;-68
2021/06/02 03:36:06;;;;;;;58.13;2.67;;;8.90;1.00;;;;;;4992799;28;20868;-68
2021/06/02 03:38:48;;;;;;;57.93;2.63;;;8.80;1.00;;;;;;4992596;28;20607;-68
2021/06/02 03:41:24;;;;;;;57.97;2.70;;;8.70;1.00;;;;;;4992643;28;20491;-68
2021/06/02 03:44:01;;;;;;;58.20;2.70;;;8.70;1.00;;;;;;4992342;28;20488;-68
2021/06/02 03:46:43;;;;;;;57.83;2.60;;;8.80;1.00;;;;;;4992297;28;20298;-68
2021/06/02 03:49:14;;;;;;;58.50;3.23;;;8.80;1.00;;;;;;4992446;28;20953;-67
2021/06/02 03:51:49;;;;;;;58.08;2.53;;;8.70;1.00;;;;;;4992981;28;20481;-68
2021/06/02 03:54:31;;;;;;;58.10;2.47;;;8.70;1.00;;;;;;4992392;28;20208;-67
2021/06/02 03:57:14;;;;;;;57.80;2.50;;;8.60;1.00;;;;;;4992200;28;20210;-67
2021/06/02 03:59:43;;;;;;;58.07;2.60;;;8.60;1.00;;;;;;4992337;28;20363;-67
2021/06/02 04:02:17;;;;;;;58.07;2.77;;;8.60;1.00;;;;;;4992471;28;20819;-67
2021/06/02 04:05:01;;;;;;;57.87;2.50;;;8.70;1.00;;;;;;4992240;28;20488;-67
2021/06/02 04:07:38;;;;;;;57.97;2.53;;;8.70;1.00;;;;;;4992207;28;20477;-68
2021/06/02 04:10:09;;;;;;;58.07;2.60;;;8.80;1.00;;;;;;4992704;28;20461;-68
2021/06/02 04:12:48;;;;;;;57.87;2.50;;;8.80;1.00;;;;;;4992431;28;20720;-68
2021/06/02 04:15:16;;;;;;;58.30;3.03;;;8.80;1.00;;;;;;4992106;28;20489;-68
2021/06/02 04:17:48;;;;;;;57.95;2.60;;;8.80;1.00;;;;;;4992087;28;20846;-67
2021/06/02 04:20:17;;;;;;;57.83;2.70;;;8.80;1.00;;;;;;4992430;28;20292;-68
2021/06/02 04:22:46;;;;;;;57.87;2.70;;;8.80;1.00;;;;;;4992220;28;20550;-68
2021/06/02 04:25:14;;;;;;;57.93;2.50;;;8.90;1.00;;;;;;4992229;28;20949;-67
2021/06/02 04:27:41;;;;;;;58.10;2.75;;;8.90;1.00;;;;;;4991790;28;20906;-68
2021/06/02 04:30:08;;;;;;;57.87;2.70;;;9.00;1.00;;;;;;4992211;28;20303;-68
2021/06/02 04:32:40;;;;;;;57.80;2.67;;;9.00;1.00;;;;;;4992466;28;20455;-68
2021/06/02 04:35:08;;;;;;;58.10;2.60;;;9.00;1.00;;;;;;4992229;28;20581;-68
2021/06/02 04:37:37;;;;;;;57.90;2.57;;;9.00;1.00;;;;;;4995687;28;20472;-67
2021/06/02 04:40:05;;;;;;;58.07;2.80;;;9.00;1.00;;;;;;4995712;28;20459;-68
2021/06/02 04:42:34;;;;;;;57.97;2.67;;;9.10;1.00;;;;;;4995629;28;20460;-68
2021/06/02 04:45:01;;;;;;;58.17;2.70;;;9.20;1.00;;;;;;4995783;28;20532;-67
2021/06/02 04:47:29;;;;;;;57.80;2.50;;;9.20;1.00;;;;;;4995404;28;20564;-67
2021/06/02 04:50:08;;;;;;;57.87;2.50;;;9.20;1.00;;;;;;4995618;28;20534;-68
2021/06/02 04:53:20;;;;;;;57.83;2.50;;;9.30;1.00;;;;;;4995467;28;20459;-68
2021/06/02 04:56:11;;;;;;;58.07;2.57;;;9.30;1.00;;;;;;4995418;28;20488;-68
2021/06/02 04:59:26;;;;;;;57.77;2.47;;;9.40;1.00;;;;;;4995188;28;20481;-68
2021/06/02 05:02:15;;;;;;;57.80;2.30;;;9.40;1.00;;;;;;4954271;29;20486;-68
2021/06/02 05:05:16;;;;;;;57.77;2.50;;;9.50;1.00;;;;;;4991450;28;21036;-68
2021/06/02 05:08:14;;;;;;;57.97;2.80;;;9.50;1.00;;;;;;4994939;28;21004;-68
2021/06/02 05:11:40;;;;;;;57.87;2.43;;;9.50;1.00;;;;;;4995232;28;20679;-67
2021/06/02 05:15:06;;;;;;;57.87;2.57;;;9.60;1.00;;;;;;4995237;28;20517;-68
2021/06/02 05:18:12;;;;;;;57.63;2.40;;;9.60;1.00;;;;;;4994735;28;21046;-67
2021/06/02 05:24:37;;;;;;;57.87;2.47;;;9.80;1.00;;;;;;4994892;28;20461;-67
2021/06/02 05:27:43;;;;;;;57.70;2.50;;;9.90;1.00;;;;;;4994681;28;20516;-67
2021/06/02 05:30:34;;;;;;;58.30;2.97;;;9.90;1.00;;;;;;4994650;28;20450;-67
2021/06/02 05:33:29;;;;;;;57.83;2.50;;;10.00;1.00;;;;;;4994938;28;20954;-67
2021/06/02 05:36:36;;;;;;;57.67;2.47;;;10.10;1.00;;;;;;4994613;28;20608;-68
2021/06/02 05:39:20;;;;;;;57.77;2.50;;;10.20;1.00;;;;;;4994629;28;20473;-68
2021/06/02 05:41:58;;;;;;;57.57;2.57;;;10.20;1.00;;;;;;4994736;28;20447;-67
2021/06/02 05:45:04;;;;;;;57.53;2.57;;;10.30;1.00;;;;;;4994485;28;21015;-67
2021/06/02 05:48:02;;;;;;;57.67;2.53;;;10.40;1.00;;;;;;4994275;28;20557;-67
2021/06/02 05:51:01;;;;;;;57.77;2.60;;;10.50;1.00;;;;;;4994487;28;20491;-66
2021/06/02 05:54:03;;;;;;;57.53;2.43;;;10.60;1.00;;;;;;4994358;28;20958;-67
2021/06/02 05:57:20;;;;;;;57.67;2.50;;;10.70;1.00;;;;;;4972999;28;20529;-67
2021/06/02 06:00:04;;;;;;;57.60;2.47;;;10.80;1.00;;;;;;4983531;28;20459;-66
2021/06/02 06:03:01;;;;;;;57.67;2.63;;;10.90;1.00;;;;;;4994261;28;20866;-67
2021/06/02 06:05:55;;;;;;;57.77;2.50;;;10.90;1.00;;;;;;4994275;28;20533;-67
2021/06/02 06:08:58;;;;;;;57.70;2.40;;;11.00;1.00;;;;;;4993587;28;20474;-67
2021/06/02 06:12:04;;;;;;;57.67;2.50;;;11.10;1.00;;;;;;4979007;28;20489;-66
2021/06/02 06:15:12;;;;;;;57.87;2.50;;;11.30;1.00;;;;;;4994075;28;20569;-67
2021/06/02 06:17:56;;;;;;;57.77;2.50;;;11.40;1.00;;;;;;4993718;28;20981;-67
2021/06/02 06:20:46;;;;;;;57.87;2.50;;;11.50;1.00;;;;;;4993721;28;20451;-67
2021/06/02 06:23:39;;;;;;;57.43;2.30;;;11.70;1.00;;;;;;4993921;28;20533;-67
2021/06/02 06:26:14;;;;;;;57.87;2.60;;;11.90;1.00;;;;;;4991885;28;20545;-67
2021/06/02 06:28:45;;;;;;;57.63;2.60;;;12.10;1.00;;;;;;4993535;28;20922;-67
2021/06/02 06:31:15;;;;;;;57.80;2.53;;;12.40;1.00;;;;;;4993802;28;20450;-67
2021/06/02 06:33:46;;;;;;;57.83;2.57;;;12.60;1.00;;;;;;4993615;28;20447;-67
2021/06/02 06:36:17;;;;;;;57.73;2.40;;;12.70;1.00;;;;;;4993390;28;20498;-67
2021/06/02 06:38:58;;;;;;;58.07;2.67;;;12.90;1.00;;;;;;4993331;28;20473;-68
2021/06/02 06:41:27;;;;;;;58.17;2.80;;;13.10;1.00;;;;;;4993762;28;20541;-67
2021/06/02 06:43:55;;;;;;;57.73;2.70;;;13.20;1.00;;;;;;4993513;28;20457;-66
2021/06/02 06:46:23;;;;;;;57.93;2.50;;;13.40;1.00;;;;;;4993274;28;20447;-67
2021/06/02 06:48:53;;;;;;;57.57;2.60;;;13.60;1.00;;;;;;4993083;28;21072;-67
2021/06/02 06:51:21;;;;;;;57.57;2.47;;;13.80;1.00;;;;;;4993163;28;20534;-67
2021/06/02 06:53:49;;;;;;;57.63;2.40;;;13.90;1.00;;;;;;4993109;28;20546;-67
2021/06/02 06:56:17;;;;;;;57.50;2.30;;;14.10;1.00;;;;;;4993112;28;20469;-67
2021/06/02 06:58:45;;;;;;;57.73;2.20;;;14.30;1.00;;;;;;4992373;28;21009;-67
2021/06/02 07:01:14;;;;;;;57.77;2.63;;;14.50;1.00;;;;;;4993362;28;20839;-68
2021/06/02 07:03:41;;;;;;;57.33;2.50;;;14.70;1.00;;;;;;4993046;28;20541;-67
2021/06/02 07:06:08;;;;;;;57.83;2.47;;;15.00;1.00;;;;;;4992797;28;20811;-67
2021/06/02 07:08:36;;;;;;;57.73;2.50;;;15.20;1.00;;;;;;4993161;28;20470;-68
2021/06/02 07:11:02;;;;;;;57.90;2.60;;;15.40;1.00;;;;;;4992991;28;21029;-68
2021/06/02 07:13:30;;;;;;;57.67;2.40;;;15.60;1.00;;;;;;4993054;28;20547;-67
2021/06/02 07:16:01;;;;;;;57.20;2.50;;;15.80;1.00;;;;;;4992851;28;20928;-68
2021/06/02 07:18:30;;;;;;;57.60;2.60;;;16.00;1.00;;;;;;4992589;28;20557;-68
2021/06/02 07:21:00;;;;;;;57.43;2.50;;;16.10;1.00;;;;;;4992970;28;20478;-68
2021/06/02 07:23:28;;;;;;;57.00;2.80;;;16.20;1.00;;;;;;4992934;28;20466;-68
2021/06/02 07:25:55;;;;;;;57.77;2.50;;;16.40;1.00;;;;;;4992764;28;20447;-68
2021/06/02 07:28:34;;;;;;;57.37;2.50;;;16.50;1.00;;;;;;4992499;28;20558;-68
2021/06/02 07:31:00;;;;;;;57.67;2.40;;;16.60;1.00;;;;;;4992653;28;20506;-68
2021/06/02 07:33:27;;;;;;;57.77;2.37;;;16.80;1.00;;;;;;4992832;28;20595;-68
2021/06/02 07:35:53;;;;;;;57.37;2.40;;;17.00;1.00;;;;;;4992706;28;20843;-68
2021/06/02 07:38:19;;;;;;;57.67;2.57;;;17.10;1.00;;;;;;4992447;28;20958;-68
2021/06/02 07:40:47;;;;;;;57.77;2.40;;;17.20;1.00;;;;;;4992526;28;20978;-67
2021/06/02 07:43:14;;;;;;;57.77;2.40;;;17.40;1.00;;;;;;4992605;28;20477;-68
2021/06/02 07:45:41;;;;;;;57.77;2.20;;;17.50;1.00;;;;;;4992459;28;20543;-68
2021/06/02 07:48:08;;;;;;;57.17;2.20;;;17.60;1.00;;;;;;4992291;28;20508;-68
2021/06/02 07:50:34;;;;;;;57.63;2.20;;;17.80;1.00;;;;;;4992297;28;20540;-67
2021/06/02 07:53:00;;;;;;;57.63;2.60;;;17.90;1.00;;;;;;4992560;28;20552;-68
2021/06/02 07:55:27;;;;;;;57.67;2.50;;;18.10;1.00;;;;;;4992483;28;20677;-68
2021/06/02 07:57:55;;;;;;;57.47;2.47;;;18.20;1.00;;;;;;4992062;28;20561;-67
2021/06/02 08:00:22;;;;;;;57.57;2.27;;;18.30;1.00;;;;;;4992019;28;20496;-67
2021/06/02 08:02:48;;;;;;;57.67;2.23;;;18.40;1.00;;;;;;4992711;28;20445;-68
2021/06/02 08:05:15;;;;;;;57.50;2.30;;;18.50;1.00;;;;;;4992605;28;20541;-68
2021/06/02 08:07:43;;;;;;;57.57;2.30;;;18.60;1.00;;;;;;4992065;28;20488;-68
2021/06/02 08:10:10;;;;;;;57.47;2.23;;;18.80;1.00;;;;;;4992383;28;20486;-68
2021/06/02 08:12:37;;;;;;;57.70;2.40;;;18.90;1.00;;;;;;4996146;28;20458;-68
2021/06/02 08:15:08;;;;;;;57.90;2.30;;;19.10;1.00;;;;;;4996315;28;20593;-68
2021/06/02 08:17:34;;;;;;;57.57;2.40;;;19.20;1.00;;;;;;4995819;28;20470;-68
2021/06/02 08:20:01;;;;;;;57.37;2.20;;;19.40;1.00;;;;;;4996180;28;20450;-68
2021/06/02 08:22:27;;;;;;;57.57;2.20;;;19.60;1.00;;;;;;4996037;28;20450;-67
2021/06/02 08:24:54;;;;;;;57.47;2.30;;;19.70;1.00;;;;;;4995935;28;20446;-68
2021/06/02 08:27:20;;;;;;;57.37;2.40;;;19.80;1.00;;;;;;4995529;28;20553;-68
2021/06/02 08:29:46;;;;;;;57.27;2.20;;;19.90;1.00;;;;;;4996191;28;20936;-68
2021/06/02 08:32:14;;;;;;;57.17;2.30;;;20.00;1.00;;;;;;4995968;28;20513;-68
2021/06/02 08:34:41;;;;;;;57.27;2.30;;;20.10;1.00;;;;;;4995888;28;20514;-68
2021/06/02 08:37:08;;;;;;;57.47;2.30;;;20.10;1.00;;;;;;4995732;28;20948;-68
2021/06/02 08:39:34;;;;;;;57.73;2.20;;;20.20;1.00;;;;;;4995434;28;20454;-68
2021/06/02 08:42:01;;;;;;;57.40;2.40;;;20.30;1.00;;;;;;4995531;28;20487;-68
2021/06/02 08:44:28;;;;;;;57.33;2.20;;;20.50;1.00;;;;;;4995875;28;20534;-68
2021/06/02 08:46:54;;;;;;;57.37;2.30;;;20.70;1.00;;;;;;4995317;28;20915;-68
2021/06/02 08:49:22;;;;;;;57.67;2.00;;;20.90;1.00;;;;;;4995874;28;20454;-68
2021/06/02 08:51:49;;;;;;;58.57;2.50;;;21.00;1.00;;;;;;4995568;28;20451;-68
2021/06/02 08:54:16;;;;;;;57.60;2.27;;;21.10;1.00;;;;;;4995793;28;20483;-68
2021/06/02 08:56:44;;;;;;;57.30;2.10;;;21.10;1.00;;;;;;4995384;28;20820;-68
2021/06/02 08:59:11;;;;;;;57.37;2.20;;;21.10;1.00;;;;;;4995315;28;20554;-68
2021/06/02 09:01:37;;;;;;;57.27;2.20;;;21.20;1.00;;;;;;4995749;28;20875;-68
2021/06/02 09:04:05;;;;;;;57.67;2.53;;;21.30;1.00;;;;;;4995312;28;20451;-68
2021/06/02 09:06:33;;;;;;;57.47;2.30;;;;;;;;;;4994866;28;20458;-68
2021/06/02 09:09:02;;;;;;;57.47;2.40;;;21.60;1.00;;;;;;4995077;28;20569;-68
2021/06/02 09:11:28;;;;;;;57.10;2.27;;;21.70;1.00;;;;;;4995332;28;20456;-69
2021/06/02 09:13:55;;;;;;;57.33;2.10;;;21.80;1.00;;;;;;4995121;28;20479;-69
2021/06/02 09:16:23;;;;;;;57.33;2.13;;;21.90;1.00;;;;;;4994845;28;20519;-68
2021/06/02 09:18:58;;;;;;;57.70;2.40;;;22.10;1.00;;;;;;4994865;28;20913;-68
2021/06/02 09:21:26;;;;;;;57.57;2.23;;;22.20;1.00;;;;;;4994428;28;20545;-66
2021/06/02 09:23:54;;;;;;;57.57;2.17;;;22.30;1.00;;;;;;4995098;28;20533;-66
2021/06/02 09:26:23;;;;;;;57.57;2.40;;;22.40;1.00;;;;;;4994860;28;20529;-66
2021/06/02 09:28:52;;;;;;;57.37;2.30;;;22.50;1.00;;;;;;4994843;28;20562;-65
2021/06/02 09:31:33;;;;;;;57.63;2.20;;;22.70;1.00;;;;;;4994789;28;20636;-68
2021/06/02 09:34:03;;;;;;;57.60;2.30;;;22.80;1.00;;;;;;4994665;28;20545;-66
2021/06/02 09:36:31;;;;;;;57.47;2.00;;;23.00;1.00;;;;;;4994730;28;20501;-68
2021/06/02 09:39:02;;;;;;;57.50;2.30;;;23.10;1.00;;;;;;4994549;28;20904;-67
2021/06/02 09:41:30;;;;;;;57.27;2.13;;;23.20;1.00;;;;;;4994766;28;20542;-67
2021/06/02 09:43:57;;;;;;;57.43;2.07;;;23.40;1.00;;;;;;4994612;28;20502;-67
2021/06/02 09:46:23;;;;;;;57.47;2.10;;;23.60;1.00;;;;;;4994235;28;20499;-68
2021/06/02 09:49:01;;;;;;;57.37;2.13;;;23.80;1.00;;;;;;4994575;28;20918;-68
2021/06/02 09:51:32;;;;;;;57.37;2.20;;;24.00;1.00;;;;;;4994323;28;20455;-68
2021/06/02 09:54:01;;;;;;;57.47;2.10;;;24.30;1.00;;;;;;4994405;28;20536;-68
2021/06/02 09:56:38;;;;;;;57.47;2.10;;;24.50;1.00;;;;;;4994170;28;20512;-67
2021/06/02 09:59:08;;;;;;;57.50;2.03;;;24.70;1.00;;;;;;4993889;28;20561;-68
2021/06/02 10:01:58;;;;;;;57.43;2.10;;;24.90;1.00;;;;;;4994333;28;20570;-68
2021/06/02 10:04:30;;;;;;;57.30;2.00;;;25.10;1.00;;;;;;4994482;28;20450;-68
2021/06/02 10:06:57;;;;;;;57.57;2.00;;;25.40;1.00;;;;;;4993926;28;20941;-68
2021/06/02 10:09:28;;;;;;;57.77;2.87;;;25.80;1.00;;;;;;4994166;28;21046;-68
2021/06/02 10:11:58;;;;;;;57.47;2.20;;;26.00;1.00;;;;;;4994559;28;20482;-66
2021/06/02 10:14:25;;;;;;;57.27;2.10;;;26.40;1.00;;;;;;4993969;28;20484;-66
2021/06/02 10:16:51;;;;;;;57.23;1.90;;;26.60;1.00;;;;;;4993661;28;20453;-66
2021/06/02 10:19:40;;;;;;;57.27;1.87;;;27.00;1.00;;;;;;4993821;28;20993;-69
2021/06/02 10:22:19;;;;;;;57.37;1.97;;;28.10;1.00;;;;;;4994018;28;20454;-67
2021/06/02 10:24:48;;;;;;;56.97;1.70;;;29.80;1.00;;;;;;4994035;28;20439;-68
2021/06/02 10:27:14;;;;;;;57.27;2.00;;;31.30;1.00;;;;;;4993644;28;20561;-68
2021/06/02 10:29:42;;;;;;;56.97;1.77;;;;;;;;;;4993833;28;20541;-67
2021/06/02 10:32:08;;;;;;;58.83;1.97;;;33.60;1.00;;;;;;4993514;28;20955;-68
2021/06/02 10:34:34;;;;;;;56.67;1.80;;;34.20;1.00;;;;;;4992805;28;20546;-67
2021/06/02 10:37:01;;;;;;;57.00;2.27;;;34.70;1.00;;;;;;4993359;28;20512;-68
2021/06/02 10:39:31;;;;;;;56.77;1.70;;;35.10;1.00;;;;;;4993402;28;20538;-67
2021/06/02 10:42:03;;;;;;;56.47;1.80;;;35.40;1.00;;;;;;4993653;28;20590;-69
2021/06/02 10:44:34;;;;;;;56.53;1.80;;;35.50;1.00;;;;;;4993272;28;20482;-68
2021/06/02 10:47:02;;;;;;;56.80;1.80;;;35.60;1.00;;;;;;4993055;28;20933;-68
2021/06/02 10:49:36;;;;;;;56.77;1.90;;;36.10;1.00;;;;;;4993467;28;20535;-68
2021/06/02 10:52:04;;;;;;;57.57;2.60;;;36.60;1.00;;;;;;4993296;28;20447;-67
2021/06/02 10:54:35;;;;;;;56.53;2.03;;;37.00;1.00;;;;;;4993458;28;20490;-68
2021/06/02 10:57:11;;;;;;;56.57;1.80;;;37.30;1.00;;;;;;4993029;28;20447;-68
2021/06/02 10:59:39;;;;;;;55.90;1.70;;;37.60;1.00;;;;;;4993196;28;20854;-69
2021/06/02 11:02:07;;;;;;;56.77;1.80;;;38.00;1.00;;;;;;4993284;28;20482;-68
2021/06/02 11:04:36;;;;;;;56.27;1.70;;;38.50;1.00;;;;;;4993152;28;20490;-67
2021/06/02 11:07:17;;;;;;;57.40;2.80;;;39.00;1.00;;;;;;4992719;28;20890;-67
2021/06/02 11:10:03;;;;;;;56.53;2.00;;;39.60;1.00;;;;;;4992773;28;20455;-68
2021/06/02 11:13:03;;;;;;;56.70;2.00;;;40.00;1.00;;;;;;4993110;28;20898;-67
2021/06/02 11:15:44;;;;;;;56.07;1.70;;;40.50;1.00;;;;;;4992976;28;20857;-68
2021/06/02 11:18:23;;;;;;;56.17;1.90;;;40.70;1.00;;;;;;4992471;28;20470;-68
2021/06/02 11:20:51;;;;;;;56.17;1.70;;;40.70;1.00;;;;;;4992751;28;20861;-68
2021/06/02 11:23:18;;;;;;;55.57;1.70;;;40.80;1.00;;;;;;4992889;28;20447;-68
2021/06/02 11:25:46;;;;;;;56.10;1.60;;;41.00;1.00;;;;;;4992558;28;20569;-68
2021/06/02 11:28:41;;;;;;;56.47;1.80;;;41.10;1.00;;;;;;4992495;28;20513;-67
2021/06/02 11:31:21;;;;;;;56.37;1.67;;;41.20;1.00;;;;;;4992807;28;20533;-68
2021/06/02 11:33:48;;;;;;;56.40;1.70;;;41.20;1.00;;;;;;4992654;28;20447;-68
2021/06/02 11:36:15;;;;;;;56.50;1.60;;;41.40;1.00;;;;;;4992445;28;20443;-68
2021/06/02 11:38:42;;;;;;;55.67;1.60;;;41.60;1.00;;;;;;4992406;28;20467;-68
2021/06/02 11:41:10;;;;;;;56.50;1.60;;;41.70;1.00;;;;;;4992468;28;20454;-68
2021/06/02 11:43:36;;;;;;;56.03;1.50;;;41.70;1.00;;;;;;4992766;28;20478;-68
2021/06/02 11:46:05;;;;;;;56.13;1.60;;;41.40;1.00;;;;;;4992133;28;20593;-68
2021/06/02 11:48:37;;;;;;;56.13;1.60;;;41.40;1.00;;;;;;4992281;28;20473;-68
2021/06/02 11:51:06;;;;;;;55.57;1.80;;;41.40;1.00;;;;;;4992470;28;20454;-68
2021/06/02 11:53:46;;;;;;;55.97;1.77;;;41.70;1.00;;;;;;4992465;28;20916;-68
2021/06/02 11:56:15;;;;;;;55.87;1.90;;;41.70;1.00;;;;;;4992544;28;20454;-67
2021/06/02 11:58:49;;;;;;;55.87;1.60;;;42.20;1.00;;;;;;4992243;28;20914;-68
2021/06/02 12:01:24;;;;;;;56.20;1.80;;;42.40;1.00;;;;;;4992337;28;20970;-68
2021/06/02 12:03:57;;;;;;;56.60;2.03;;;42.70;1.00;;;;;;4992265;28;20451;-68
2021/06/02 12:06:32;;;;;;;56.10;1.93;;;42.70;1.00;;;;;;4992480;28;20479;-65
2021/06/02 12:08:59;;;;;;;56.50;2.10;;;42.60;1.00;;;;;;4992170;28;20549;-66
2021/06/02 12:11:26;;;;;;;56.60;2.30;;;42.40;1.00;;;;;;4992365;28;20446;-67
2021/06/02 12:13:52;;;;;;;56.27;2.30;;;42.60;1.00;;;;;;4992225;28;20549;-67
2021/06/02 12:16:25;;;;;;;55.90;2.37;;;43.00;1.00;;;;;;4991928;28;20530;-67
2021/06/02 12:18:52;;;;;;;56.90;2.30;;;43.40;1.00;;;;;;4992379;28;20513;-67
2021/06/02 12:21:20;;;;;;;55.87;1.83;;;43.60;1.00;;;;;;4992314;28;20451;-67
2021/06/02 12:23:52;;;;;;;56.30;2.10;;;43.60;1.00;;;;;;4992214;28;20542;-67
2021/06/02 12:26:24;;;;;;;57.47;2.07;;;;;;;;;;4991958;28;20574;-67
2021/06/02 12:28:50;;;;;;;55.27;1.90;;;43.50;1.00;;;;;;4991938;28;20532;-67
2021/06/02 12:31:41;;;;;;;56.27;2.27;;;43.30;1.00;;;;;;4992392;28;20871;-67
2021/06/02 12:34:11;;;;;;;56.30;2.17;;;43.10;1.00;;;;;;4992213;28;20479;-66
2021/06/02 12:36:42;;;;;;;55.50;1.90;;;;;;;;;;4991821;28;20452;-67
2021/06/02 12:39:09;;;;;;;55.87;2.20;;;;;;;;;;4991927;28;20502;-67
2021/06/02 12:41:36;;;;;;;56.20;1.90;;;43.30;1.00;;;;;;4992170;28;20447;-67
2021/06/02 12:44:04;;;;;;;55.87;2.10;;;43.70;1.00;;;;;;4992063;28;20546;-67
2021/06/02 12:46:32;;;;;;;55.20;1.70;;;43.10;1.00;;;;;;4991691;28;20490;-67
2021/06/02 12:49:01;;;;;;;56.37;1.97;;;;;;;;;;4991825;28;20463;-67
2021/06/02 12:51:27;;;;;;;56.17;1.97;;;;;;;;;;4991897;28;20477;-67
2021/06/02 12:53:54;;;;;;;55.77;2.40;;;;;;;;;;4991772;28;20454;-67
2021/06/02 12:56:21;;;;;;;56.33;1.90;;;;;;;;;;4992218;28;20542;-67
2021/06/02 12:58:53;;;;;;;56.47;2.30;;;42.10;1.00;;;;;;4995319;28;20585;-67
2021/06/02 13:01:21;;;;;;;56.27;1.90;;;42.10;1.00;;;;;;4995676;28;20454;-67
2021/06/02 13:03:51;;;;;;;56.23;2.20;;;41.60;1.00;;;;;;4995452;28;20541;-67
2021/06/02 13:06:19;;;;;;;56.87;2.20;;;41.20;1.00;;;;;;4994920;28;20624;-67
2021/06/02 13:08:46;;;;;;;56.73;2.27;;;41.20;1.00;;;;;;4995239;28;20477;-67
2021/06/02 13:11:16;;;;;;;56.63;2.10;;;41.10;1.00;;;;;;4995234;28;20455;-67
2021/06/02 13:13:47;;;;;;;56.80;2.00;;;40.90;1.00;;;;;;4995282;28;20451;-67
2021/06/02 13:16:14;;;;;;;56.67;2.20;;;40.40;1.00;;;;;;4994969;28;20567;-67
2021/06/02 13:18:40;;;;;;;57.10;2.20;;;39.90;1.00;;;;;;4994919;28;20506;-67
2021/06/02 13:21:13;;;;;;;56.10;2.00;;;39.40;1.00;;;;;;4994886;28;20499;-67
2021/06/02 13:23:42;;;;;;;56.70;2.30;;;39.20;1.00;;;;;;4995106;28;20482;-67
2021/06/02 13:26:12;;;;;;;56.70;2.10;;;38.80;1.00;;;;;;4994668;28;20493;-66
2021/06/02 13:28:43;;;;;;;56.80;2.33;;;38.10;1.00;;;;;;4995128;28;20475;-67
2021/06/02 13:31:10;;;;;;;56.83;2.37;;;37.90;1.00;;;;;;4994858;28;20876;-67
2021/06/02 13:33:40;;;;;;;56.70;2.00;;;37.90;1.00;;;;;;4994712;28;20521;-68
2021/06/02 13:36:09;;;;;;;56.87;2.20;;;38.10;1.00;;;;;;4995071;28;20455;-67